createdAt,value
2023-03-11T00:00:22.202Z,971.8
2023-03-11T00:02:23.737Z,972
2023-03-11T00:04:25.431Z,971.9
2023-03-11T00:08:28.393Z,971.9
2023-03-11T00:10:30.439Z,971.9
2023-03-11T00:12:32.313Z,972
2023-03-11T00:14:33.502Z,972
2023-03-11T00:16:34.887Z,972
2023-03-11T00:18:35.890Z,972.1
2023-03-11T00:20:37.829Z,972.2
2023-03-11T00:22:39.455Z,972.2
2023-03-11T00:24:41.230Z,972.2
2023-03-11T00:26:42.346Z,972.3
2023-03-11T00:28:44.072Z,972.3
2023-03-11T00:30:45.381Z,972.1
2023-03-11T00:32:46.478Z,972.2
2023-03-11T00:34:47.693Z,972.2
2023-03-11T00:36:48.743Z,972.1
2023-03-11T00:38:49.890Z,972.2
2023-03-11T00:40:51.612Z,972.2
2023-03-11T00:42:53.036Z,972.2
2023-03-11T00:44:54.662Z,972.1
2023-03-11T00:46:55.783Z,972.1
2023-03-11T00:50:58.803Z,972.3
2023-03-11T00:53:00.436Z,972.3
2023-03-11T00:55:02.016Z,972.4
2023-03-11T00:57:03.473Z,972.5
2023-03-11T00:59:05.307Z,972.6
2023-03-11T01:01:06.844Z,972.6
2023-03-11T01:03:07.938Z,972.6
2023-03-11T01:05:09.512Z,972.6
2023-03-11T01:07:11.434Z,972.6
2023-03-11T01:09:12.305Z,972.5
2023-03-11T01:11:13.977Z,972.5
2023-03-11T01:13:15.541Z,972.5
2023-03-11T01:15:17.297Z,972.6
2023-03-11T01:17:19.248Z,972.5
2023-03-11T01:19:20.847Z,972.5
2023-03-11T01:21:22.157Z,972.6
2023-03-11T01:23:24.029Z,972.6
2023-03-11T01:25:25.065Z,972.7
2023-03-11T01:27:26.497Z,972.6
2023-03-11T01:29:27.725Z,972.7
2023-03-11T01:31:29.459Z,972.6
2023-03-11T01:33:30.795Z,972.6
2023-03-11T01:35:31.947Z,972.8
2023-03-11T01:37:33.554Z,972.7
2023-03-11T01:39:35.328Z,972.8
2023-03-11T01:41:36.668Z,972.9
2023-03-11T01:43:38.389Z,972.9
2023-03-11T01:45:39.662Z,972.9
2023-03-11T01:49:42.912Z,973
2023-03-11T01:51:44.199Z,973
2023-03-11T01:53:45.672Z,972.9
2023-03-11T01:55:47.430Z,973
2023-03-11T01:57:48.620Z,972.9
2023-03-11T01:59:49.703Z,973
2023-03-11T02:01:50.880Z,972.9
2023-03-11T02:03:52.681Z,972.8
2023-03-11T02:05:54.273Z,972.8
2023-03-11T02:07:56.067Z,973.1
2023-03-11T02:09:57.246Z,973
2023-03-11T02:11:58.652Z,973
2023-03-11T02:14:00.131Z,973
2023-03-11T02:16:01.670Z,973
2023-03-11T02:18:03.421Z,973.1
2023-03-11T02:20:05.049Z,973.1
2023-03-11T02:22:06.765Z,973.1
2023-03-11T02:24:08.172Z,973.1
2023-03-11T02:26:09.774Z,973.1
2023-03-11T02:28:11.059Z,973.1
2023-03-11T02:32:14.745Z,973.3
2023-03-11T02:34:16.468Z,973.3
2023-03-11T02:36:18.402Z,973.4
2023-03-11T02:38:20.137Z,973.4
2023-03-11T02:40:21.653Z,973.4
2023-03-11T02:42:22.764Z,973.4
2023-03-11T02:46:26.088Z,973.5
2023-03-11T02:48:27.047Z,973.5
2023-03-11T02:50:28.156Z,973.5
2023-03-11T02:52:39.205Z,973.5
2023-03-11T02:54:31.053Z,973.6
2023-03-11T02:56:32.278Z,973.6
2023-03-11T02:58:33.982Z,973.6
2023-03-11T03:00:35.925Z,973.6
2023-03-11T03:04:39.128Z,973.6
2023-03-11T03:06:40.793Z,973.7
2023-03-11T03:08:42.403Z,973.5
2023-03-11T03:10:43.699Z,973.6
2023-03-11T03:12:45.630Z,973.6
2023-03-11T03:14:46.815Z,973.6
2023-03-11T03:16:47.983Z,973.5
2023-03-11T03:18:49.054Z,973.6
2023-03-11T03:20:50.148Z,973.6
2023-03-11T03:22:51.959Z,973.6
2023-03-11T03:24:53.332Z,973.5
2023-03-11T03:26:55.058Z,973.7
2023-03-11T03:27:39.008Z,973.6
2023-03-11T03:29:40.092Z,973.7
2023-03-11T03:31:41.153Z,973.7
2023-03-11T03:35:45.119Z,973.8
2023-03-11T03:37:46.746Z,973.8
2023-03-11T03:39:48.136Z,973.8
2023-03-11T03:41:50.129Z,973.9
2023-03-11T03:43:52.112Z,974
2023-03-11T03:45:53.963Z,974
2023-03-11T03:47:55.415Z,974
2023-03-11T03:49:56.633Z,974
2023-03-11T03:51:58.528Z,974.1
2023-03-11T03:53:59.760Z,974
2023-03-11T03:56:01.478Z,974.1
2023-03-11T03:58:03.221Z,974.1
2023-03-11T04:00:04.971Z,974.2
2023-03-11T04:02:06.641Z,974.2
2023-03-11T04:04:07.745Z,974.2
2023-03-11T04:08:10.495Z,974.2
2023-03-11T04:10:12.010Z,974.1
2023-03-11T04:12:13.166Z,974.3
2023-03-11T04:14:15.125Z,974.2
2023-03-11T04:18:18.955Z,974.3
2023-03-11T04:20:20.090Z,974.4
2023-03-11T04:22:21.732Z,974.3
2023-03-11T04:24:23.414Z,974.3
2023-03-11T04:26:24.941Z,974.3
2023-03-11T04:28:26.788Z,974.3
2023-03-11T04:30:27.907Z,974.2
2023-03-11T04:32:29.917Z,974.4
2023-03-11T04:34:31.706Z,974.3
2023-03-11T04:36:33.322Z,974.3
2023-03-11T04:38:34.674Z,974.3
2023-03-11T04:40:36.132Z,974.5
2023-03-11T04:42:37.434Z,974.5
2023-03-11T04:44:39.088Z,974.5
2023-03-11T04:46:40.273Z,974.5
2023-03-11T04:50:42.589Z,974.6
2023-03-11T04:52:43.821Z,974.6
2023-03-11T04:54:45.631Z,974.5
2023-03-11T04:56:47.123Z,974.5
2023-03-11T05:00:50.076Z,974.4
2023-03-11T05:02:51.869Z,974.6
2023-03-11T05:04:53.231Z,974.5
2023-03-11T05:06:55.077Z,974.5
2023-03-11T05:08:56.136Z,974.5
2023-03-11T05:10:57.311Z,974.7
2023-03-11T05:12:59.185Z,974.5
2023-03-11T05:15:01.137Z,974.5
2023-03-11T05:17:02.415Z,974.5
2023-03-11T05:19:03.701Z,974.7
2023-03-11T05:21:05.466Z,974.8
2023-03-11T05:23:06.551Z,974.7
2023-03-11T05:25:07.987Z,974.7
2023-03-11T05:27:09.804Z,974.7
2023-03-11T05:29:11.482Z,974.8
2023-03-11T05:31:13.178Z,974.8
2023-03-11T05:33:14.973Z,974.9
2023-03-11T05:35:16.814Z,974.8
2023-03-11T05:37:18.510Z,974.8
2023-03-11T05:39:19.705Z,974.9
2023-03-11T05:41:21.003Z,974.8
2023-03-11T05:43:31.501Z,974.8
2023-03-11T05:45:24.252Z,974.9
2023-03-11T05:49:27.914Z,974.9
2023-03-11T05:51:29.453Z,974.9
2023-03-11T05:53:31.011Z,974.9
2023-03-11T05:55:32.554Z,974.9
2023-03-11T05:57:33.734Z,975
2023-03-11T05:59:35.659Z,975.1
2023-03-11T06:01:37.344Z,975
2023-03-11T06:03:38.987Z,975
2023-03-11T06:05:40.729Z,975.1
2023-03-11T06:07:41.906Z,975.1
2023-03-11T06:09:43.885Z,975.1
2023-03-11T06:11:45.128Z,975.2
2023-03-11T06:13:46.374Z,975.1
2023-03-11T06:15:47.769Z,975.2
2023-03-11T06:17:49.364Z,975.2
2023-03-11T06:19:51.372Z,975.2
2023-03-11T06:21:52.501Z,975.3
2023-03-11T06:23:54.280Z,975.3
2023-03-11T06:25:55.512Z,975.3
2023-03-11T06:27:56.998Z,975.3
2023-03-11T06:32:00.314Z,975.4
2023-03-11T06:34:01.761Z,975.4
2023-03-11T06:36:02.964Z,975.3
2023-03-11T06:38:04.686Z,975.4
2023-03-11T06:40:05.807Z,975.5
2023-03-11T06:42:07.278Z,975.6
2023-03-11T06:44:09.080Z,975.6
2023-03-11T06:46:10.367Z,975.5
2023-03-11T06:48:12.045Z,975.6
2023-03-11T06:50:13.639Z,975.6
2023-03-11T06:52:15.060Z,975.6
2023-03-11T06:54:16.796Z,975.7
2023-03-11T06:56:18.004Z,975.7
2023-03-11T06:58:19.277Z,975.7
2023-03-11T07:00:20.575Z,975.8
2023-03-11T07:02:22.057Z,975.7
2023-03-11T07:04:23.356Z,975.8
2023-03-11T07:06:25.068Z,975.8
2023-03-11T07:08:26.253Z,975.8
2023-03-11T07:10:27.757Z,975.8
2023-03-11T07:14:30.966Z,975.9
2023-03-11T07:16:32.359Z,975.9
2023-03-11T07:18:33.985Z,975.9
2023-03-11T07:20:35.113Z,976
2023-03-11T07:22:36.758Z,976
2023-03-11T07:24:38.610Z,976
2023-03-11T07:26:39.742Z,976
2023-03-11T07:30:42.316Z,976
2023-03-11T07:32:43.741Z,976.1
2023-03-11T07:34:44.706Z,976.1
2023-03-11T07:36:46.094Z,976.1
2023-03-11T07:38:47.373Z,976.2
2023-03-11T07:40:48.751Z,976.2
2023-03-11T07:42:50.650Z,976.3
2023-03-11T07:44:52.307Z,976.3
2023-03-11T07:46:54.191Z,976.4
2023-03-11T07:48:55.596Z,976.4
2023-03-11T07:50:56.708Z,976.4
2023-03-11T07:52:58.334Z,976.3
2023-03-11T07:54:59.987Z,976.4
2023-03-11T07:57:01.240Z,976.5
2023-03-11T07:59:03.181Z,976.5
2023-03-11T08:01:04.328Z,976.4
2023-03-11T08:03:05.961Z,976.6
2023-03-11T08:05:07.828Z,976.7
2023-03-11T08:07:09.605Z,976.7
2023-03-11T08:09:11.366Z,976.8
2023-03-11T08:13:14.671Z,976.7
2023-03-11T08:15:16.447Z,976.7
2023-03-11T08:17:18.154Z,976.7
2023-03-11T08:19:19.550Z,976.7
2023-03-11T08:21:20.903Z,976.7
2023-03-11T08:23:22.343Z,976.8
2023-03-11T08:25:24.226Z,976.7
2023-03-11T08:27:25.974Z,976.8
2023-03-11T08:29:27.925Z,976.8
2023-03-11T08:31:29.660Z,976.9
2023-03-11T08:33:30.660Z,977.1
2023-03-11T08:35:32.372Z,977
2023-03-11T08:37:34.100Z,977.1
2023-03-11T08:39:35.603Z,977
2023-03-11T08:41:36.698Z,977.1
2023-03-11T08:43:38.056Z,977.1
2023-03-11T08:45:39.142Z,977.1
2023-03-11T08:47:40.638Z,977.3
2023-03-11T08:49:41.865Z,977.2
2023-03-11T08:51:42.905Z,977.2
2023-03-11T08:53:44.191Z,977.1
2023-03-11T08:55:45.703Z,977.3
2023-03-11T08:57:47.502Z,977.2
2023-03-11T08:59:49.049Z,977.2
2023-03-11T09:01:50.232Z,977.2
2023-03-11T09:03:51.505Z,977.1
2023-03-11T09:05:52.977Z,977.2
2023-03-11T09:07:54.667Z,977.2
2023-03-11T09:09:56.382Z,977.1
2023-03-11T09:11:57.519Z,977.2
2023-03-11T09:13:59.257Z,977.2
2023-03-11T09:16:00.511Z,977.2
2023-03-11T09:18:01.337Z,977.2
2023-03-11T09:22:05.470Z,977.1
2023-03-11T09:24:07.314Z,977.2
2023-03-11T09:26:08.578Z,977.2
2023-03-11T09:28:10.787Z,977.3
2023-03-11T09:32:13.794Z,977.3
2023-03-11T09:34:16.242Z,977.4
2023-03-11T09:36:16.396Z,977.4
2023-03-11T09:38:18.203Z,977.5
2023-03-11T09:40:19.890Z,977.6
2023-03-11T09:42:21.743Z,977.6
2023-03-11T09:44:23.532Z,977.7
2023-03-11T09:46:25.138Z,977.7
2023-03-11T09:48:26.682Z,977.7
2023-03-11T09:50:35.865Z,977.7
2023-03-11T09:52:29.240Z,977.8
2023-03-11T09:54:30.653Z,977.7
2023-03-11T09:56:32.419Z,977.6
2023-03-11T09:58:34.200Z,977.7
2023-03-11T10:00:35.643Z,977.8
2023-03-11T10:02:37.614Z,977.8
2023-03-11T10:04:38.540Z,977.8
2023-03-11T10:06:39.711Z,977.9
2023-03-11T10:08:40.691Z,977.9
2023-03-11T10:10:42.150Z,977.9
2023-03-11T10:12:43.975Z,977.9
2023-03-11T10:15:29.739Z,978
2023-03-11T10:17:31.321Z,977.9
2023-03-11T10:19:32.691Z,977.9
2023-03-11T10:21:34.608Z,977.8
2023-03-11T10:23:36.300Z,977.8
2023-03-11T10:25:37.556Z,977.9
2023-03-11T10:27:40.380Z,977.8
2023-03-11T10:29:39.841Z,977.9
2023-03-11T10:31:41.021Z,977.8
2023-03-11T10:33:42.391Z,977.8
2023-03-11T10:35:44.212Z,977.8
2023-03-11T10:37:49.541Z,977.7
2023-03-11T10:39:46.869Z,977.7
2023-03-11T10:41:48.112Z,977.8
2023-03-11T10:43:49.308Z,977.7
2023-03-11T10:45:50.834Z,977.8
2023-03-11T10:47:52.466Z,977.7
2023-03-11T10:49:53.453Z,977.7
2023-03-11T10:51:54.726Z,977.7
2023-03-11T10:53:56.357Z,977.7
2023-03-11T10:55:57.235Z,977.7
2023-03-11T10:57:58.221Z,977.7
2023-03-11T10:59:59.086Z,977.8
2023-03-11T11:02:00.650Z,977.7
2023-03-11T11:04:01.666Z,977.7
2023-03-11T11:06:02.674Z,977.8
2023-03-11T11:08:04.031Z,977.8
2023-03-11T11:10:05.072Z,977.8
2023-03-11T11:12:06.942Z,977.8
2023-03-11T11:14:08.641Z,977.9
2023-03-11T11:16:10.078Z,977.9
2023-03-11T11:18:11.520Z,977.9
2023-03-11T11:20:13.248Z,978
2023-03-11T11:22:14.420Z,978
2023-03-11T11:24:16.279Z,978
2023-03-11T11:26:17.570Z,978.1
2023-03-11T11:28:18.965Z,978
2023-03-11T11:30:20.710Z,978
2023-03-11T11:32:22.646Z,978
2023-03-11T11:34:24.493Z,977.9
2023-03-11T11:36:25.627Z,978
2023-03-11T11:40:27.612Z,977.9
2023-03-11T11:42:28.615Z,977.9
2023-03-11T11:44:29.564Z,977.9
2023-03-11T11:46:30.685Z,977.8
2023-03-11T11:50:33.561Z,977.9
2023-03-11T11:52:34.523Z,977.9
2023-03-11T11:56:37.384Z,977.9
2023-03-11T11:58:38.620Z,977.8
2023-03-11T12:00:40.367Z,977.9
2023-03-11T12:02:41.734Z,977.8
2023-03-11T12:04:43.443Z,977.9
2023-03-11T12:06:45.356Z,977.8
2023-03-11T12:08:46.466Z,977.8
2023-03-11T12:10:47.890Z,977.8
2023-03-11T12:12:49.351Z,977.8
2023-03-11T12:14:50.469Z,977.8
2023-03-11T12:16:51.878Z,977.7
2023-03-11T12:18:52.880Z,977.8
2023-03-11T12:20:53.921Z,977.7
2023-03-11T12:22:55.667Z,977.8
2023-03-11T12:24:56.769Z,977.8
2023-03-11T12:26:58.013Z,977.7
2023-03-11T12:28:59.451Z,977.8
2023-03-11T12:31:01.329Z,977.8
2023-03-11T12:33:02.285Z,977.8
2023-03-11T12:35:03.911Z,977.7
2023-03-11T12:37:05.520Z,977.7
2023-03-11T12:39:07.327Z,977.9
2023-03-11T12:41:09.395Z,977.8
2023-03-11T12:43:10.911Z,977.9
2023-03-11T12:45:12.516Z,977.8
2023-03-11T12:47:13.593Z,977.8
2023-03-11T12:49:15.000Z,977.8
2023-03-11T12:51:16.584Z,977.9
2023-03-11T12:55:19.570Z,977.8
2023-03-11T12:57:20.855Z,977.8
2023-03-11T12:59:22.383Z,977.7
2023-03-11T13:01:23.961Z,977.8
2023-03-11T13:03:25.699Z,977.9
2023-03-11T13:05:27.276Z,977.8
2023-03-11T13:07:29.097Z,977.8
2023-03-11T13:09:31.606Z,977.8
2023-03-11T13:11:32.265Z,977.8
2023-03-11T13:13:33.522Z,977.9
2023-03-11T13:15:35.347Z,977.9
2023-03-11T13:17:36.731Z,977.8
2023-03-11T13:19:38.314Z,977.8
2023-03-11T13:21:40.186Z,977.8
2023-03-11T13:23:41.498Z,977.8
2023-03-11T13:25:43.316Z,977.8
2023-03-11T13:27:44.331Z,977.8
2023-03-11T13:29:45.339Z,977.8
2023-03-11T13:31:46.443Z,977.8
2023-03-11T13:33:47.673Z,977.9
2023-03-11T13:35:49.108Z,977.8
2023-03-11T13:37:50.967Z,977.9
2023-03-11T13:39:51.301Z,977.9
2023-03-11T13:41:52.449Z,977.9
2023-03-11T13:43:53.691Z,977.9
2023-03-11T13:45:55.455Z,977.8
2023-03-11T13:47:56.988Z,977.8
2023-03-11T13:49:58.541Z,977.8
2023-03-11T13:51:59.993Z,977.8
2023-03-11T13:54:01.055Z,978
2023-03-11T13:56:02.836Z,978.1
2023-03-11T13:58:04.505Z,978.1
2023-03-11T14:00:05.621Z,978.1
2023-03-11T14:04:08.561Z,978.2
2023-03-11T14:06:09.774Z,978.2
2023-03-11T14:08:10.865Z,978.3
2023-03-11T14:10:12.784Z,978.3
2023-03-11T14:14:15.408Z,978.3
2023-03-11T14:16:17.025Z,978.3
2023-03-11T14:18:18.555Z,978.3
2023-03-11T14:20:20.071Z,978.4
2023-03-11T14:22:21.492Z,978.3
2023-03-11T14:24:22.764Z,978.3
2023-03-11T14:26:24.476Z,978.4
2023-03-11T14:28:26.411Z,978.5
2023-03-11T14:30:28.095Z,978.3
2023-03-11T14:32:29.186Z,978.4
2023-03-11T14:34:30.717Z,978.4
2023-03-11T14:36:32.045Z,978.5
2023-03-11T14:38:33.210Z,978.5
2023-03-11T14:40:34.339Z,978.5
2023-03-11T14:42:35.513Z,978.5
2023-03-11T14:44:37.108Z,978.4
2023-03-11T14:46:38.335Z,978.4
2023-03-11T14:48:40.017Z,978.3
2023-03-11T14:50:41.185Z,978.2
2023-03-11T14:52:42.574Z,978.1
2023-03-11T14:54:44.162Z,978.2
2023-03-11T14:56:45.567Z,978.1
2023-03-11T14:58:51.032Z,978.3
2023-03-11T15:02:50.881Z,978.2
2023-03-11T15:04:52.349Z,978.2
2023-03-11T15:06:54.090Z,978.3
2023-03-11T15:08:55.700Z,978.3
2023-03-11T15:10:56.924Z,978.4
2023-03-11T15:12:58.771Z,978.4
2023-03-11T15:15:00.638Z,978.3
2023-03-11T15:17:01.931Z,978.5
2023-03-11T15:19:03.533Z,978.5
2023-03-11T15:21:04.482Z,978.4
2023-03-11T15:23:06.427Z,978.6
2023-03-11T15:25:07.966Z,978.5
2023-03-11T15:27:09.217Z,978.6
2023-03-11T15:29:10.846Z,978.4
2023-03-11T15:31:12.063Z,978.3
2023-03-11T15:33:13.004Z,978.4
2023-03-11T15:35:14.876Z,978.4
2023-03-11T15:37:16.581Z,978.4
2023-03-11T15:39:17.655Z,978.4
2023-03-11T15:41:18.988Z,978.4
2023-03-11T15:43:20.772Z,978.5
2023-03-11T15:45:22.348Z,978.4
2023-03-11T15:47:23.665Z,978.4
2023-03-11T15:49:25.405Z,978.4
2023-03-11T15:51:27.248Z,978.3
2023-03-11T15:53:29.145Z,978.4
2023-03-11T15:55:31.141Z,978.3
2023-03-11T15:57:32.394Z,978.3
2023-03-11T15:59:34.440Z,978.2
2023-03-11T16:01:35.559Z,978.3
2023-03-11T16:03:37.288Z,978.4
2023-03-11T16:05:38.605Z,978.3
2023-03-11T16:07:40.238Z,978.3
2023-03-11T16:09:41.690Z,978.4
2023-03-11T16:11:42.974Z,978.4
2023-03-11T16:13:44.544Z,978.4
2023-03-11T16:15:45.627Z,978.5
2023-03-11T16:17:49.972Z,978.6
2023-03-11T16:19:49.719Z,978.6
2023-03-11T16:21:50.681Z,978.6
2023-03-11T16:23:52.547Z,978.6
2023-03-11T16:25:53.732Z,978.5
2023-03-11T16:27:55.407Z,978.7
2023-03-11T16:29:56.755Z,978.7
2023-03-11T16:31:58.022Z,978.7
2023-03-11T16:33:59.126Z,978.7
2023-03-11T16:36:01.010Z,978.7
2023-03-11T16:38:02.263Z,978.8
2023-03-11T16:40:04.188Z,978.8
2023-03-11T16:44:09.502Z,978.9
2023-03-11T16:46:08.801Z,978.9
2023-03-11T16:48:09.972Z,978.9
2023-03-11T16:50:11.174Z,978.8
2023-03-11T16:52:13.152Z,978.9
2023-03-11T16:54:14.109Z,978.9
2023-03-11T16:56:15.855Z,979
2023-03-11T16:58:16.834Z,979
2023-03-11T17:01:02.022Z,979.2
2023-03-11T17:03:03.232Z,979.2
2023-03-11T17:05:04.840Z,979.2
2023-03-11T17:07:05.869Z,979.1
2023-03-11T17:09:07.116Z,979.2
2023-03-11T17:11:08.893Z,979.2
2023-03-11T17:13:10.097Z,979.3
2023-03-11T17:15:11.732Z,979.3
2023-03-11T17:17:13.692Z,979.3
2023-03-11T17:19:14.709Z,979.3
2023-03-11T17:21:16.657Z,979.3
2023-03-11T17:23:18.405Z,979.4
2023-03-11T17:25:19.626Z,979.3
2023-03-11T17:27:21.273Z,979.4
2023-03-11T17:29:22.394Z,979.4
2023-03-11T17:31:24.414Z,979.5
2023-03-11T17:33:25.915Z,979.6
2023-03-11T17:35:27.366Z,979.5
2023-03-11T17:37:29.369Z,979.5
2023-03-11T17:39:31.271Z,979.6
2023-03-11T17:41:32.749Z,979.5
2023-03-11T17:43:33.897Z,979.7
2023-03-11T17:47:37.094Z,979.6
2023-03-11T17:49:38.835Z,979.7
2023-03-11T17:51:40.263Z,979.8
2023-03-11T17:53:44.569Z,979.9
2023-03-11T17:55:43.558Z,979.8
2023-03-11T17:57:45.929Z,979.9
2023-03-11T17:59:46.551Z,979.8
2023-03-11T18:01:47.693Z,979.9
2023-03-11T18:03:49.086Z,979.9
2023-03-11T18:05:50.400Z,980
2023-03-11T18:07:52.146Z,979.9
2023-03-11T18:09:53.211Z,979.8
2023-03-11T18:11:55.074Z,979.9
2023-03-11T18:13:57.062Z,980
2023-03-11T18:15:58.250Z,980
2023-03-11T18:17:59.749Z,980.1
2023-03-11T18:20:00.800Z,980.1
2023-03-11T18:22:02.136Z,980.1
2023-03-11T18:24:03.814Z,980.2
2023-03-11T18:26:05.022Z,980.1
2023-03-11T18:28:06.226Z,980.2
2023-03-11T18:30:07.726Z,980.1
2023-03-11T18:32:09.105Z,980.1
2023-03-11T18:34:11.086Z,980.2
2023-03-11T18:36:12.967Z,980.3
2023-03-11T18:40:15.386Z,980.2
2023-03-11T18:42:17.369Z,980.1
2023-03-11T18:44:19.138Z,980.2
2023-03-11T18:46:20.722Z,980.2
2023-03-11T18:48:22.633Z,980.1
2023-03-11T18:50:23.936Z,980.2
2023-03-11T18:52:25.715Z,980.2
2023-03-11T18:54:27.509Z,980.1
2023-03-11T18:56:28.747Z,980.2
2023-03-11T18:58:30.151Z,980.2
2023-03-11T19:00:33.506Z,980.2
2023-03-11T19:02:33.317Z,980.3
2023-03-11T19:04:34.961Z,980.3
2023-03-11T19:06:36.805Z,980.4
2023-03-11T19:08:38.512Z,980.3
2023-03-11T19:10:40.077Z,980.4
2023-03-11T19:12:43.117Z,980.3
2023-03-11T19:14:42.409Z,980.4
2023-03-11T19:16:44.401Z,980.4
2023-03-11T19:18:45.887Z,980.4
2023-03-11T19:20:47.933Z,980.5
2023-03-11T19:22:49.804Z,980.5
2023-03-11T19:24:51.255Z,980.6
2023-03-11T19:28:54.202Z,980.5
2023-03-11T19:30:55.720Z,980.6
2023-03-11T19:32:57.484Z,980.6
2023-03-11T19:34:59.320Z,980.6
2023-03-11T19:37:08.469Z,980.6
2023-03-11T19:39:01.966Z,980.6
2023-03-11T19:41:03.420Z,980.6
2023-03-11T19:43:05.925Z,980.5
2023-03-11T19:45:06.631Z,980.6
2023-03-11T19:47:08.349Z,980.6
2023-03-11T19:49:10.293Z,980.6
2023-03-11T19:51:11.830Z,980.7
2023-03-11T19:53:13.810Z,980.6
2023-03-11T19:55:14.952Z,980.8
2023-03-11T19:57:16.842Z,980.6
2023-03-11T19:59:18.647Z,980.6
2023-03-11T20:01:20.156Z,980.6
2023-03-11T20:03:21.638Z,980.7
2023-03-11T20:05:23.229Z,980.8
2023-03-11T20:07:25.356Z,980.7
2023-03-11T20:11:29.459Z,980.7
2023-03-11T20:13:30.696Z,980.7
2023-03-11T20:15:32.686Z,980.8
2023-03-11T20:17:34.066Z,980.8
2023-03-11T20:19:35.200Z,980.8
2023-03-11T20:21:37.007Z,980.7
2023-03-11T20:23:38.381Z,980.8
2023-03-11T20:25:39.950Z,980.7
2023-03-11T20:27:41.083Z,980.8
2023-03-11T20:29:43.118Z,980.7
2023-03-11T20:31:44.656Z,980.7
2023-03-11T20:33:45.978Z,980.8
2023-03-11T20:37:48.945Z,980.8
2023-03-11T20:39:50.482Z,980.8
2023-03-11T20:41:52.441Z,980.8
2023-03-11T20:43:53.931Z,980.8
2023-03-11T20:45:56.039Z,980.7
2023-03-11T20:47:57.308Z,980.9
2023-03-11T20:49:58.756Z,980.9
2023-03-11T20:51:59.827Z,980.9
2023-03-11T20:54:01.413Z,980.9
2023-03-11T20:56:03.133Z,980.9
2023-03-11T20:58:04.789Z,981
2023-03-11T21:00:06.841Z,981.1
2023-03-11T21:02:08.753Z,981
2023-03-11T21:04:09.807Z,981.1
2023-03-11T21:06:11.440Z,981.2
2023-03-11T21:08:12.905Z,981.2
2023-03-11T21:10:14.138Z,981.1
2023-03-11T21:12:16.031Z,981.2
2023-03-11T21:14:17.274Z,981.3
2023-03-11T21:16:18.713Z,981.3
2023-03-11T21:20:22.068Z,981.2
2023-03-11T21:22:23.903Z,981.2
2023-03-11T21:24:25.664Z,981.3
2023-03-11T21:26:26.675Z,981.2
2023-03-11T21:28:27.760Z,981.2
2023-03-11T21:30:29.500Z,981.2
2023-03-11T21:32:31.716Z,981.2
2023-03-11T21:34:33.182Z,981.1
2023-03-11T21:36:34.789Z,981.1
2023-03-11T21:38:36.954Z,981
2023-03-11T21:40:38.100Z,981.1
2023-03-11T21:42:39.422Z,981
2023-03-11T21:44:41.464Z,981
2023-03-11T21:46:43.003Z,981
2023-03-11T21:48:44.341Z,981
2023-03-11T21:50:45.721Z,981.1
2023-03-11T21:52:47.761Z,981.2
2023-03-11T21:54:49.044Z,981
2023-03-11T21:56:50.822Z,981.1
2023-03-11T21:58:52.244Z,981.1
2023-03-11T22:00:54.342Z,981.2
2023-03-11T22:02:55.615Z,981.2
2023-03-11T22:04:57.024Z,981.1
2023-03-11T22:09:00.709Z,981.3
2023-03-11T22:11:01.998Z,981.2
2023-03-11T22:13:03.450Z,981.1
2023-03-11T22:15:04.793Z,981.2
2023-03-11T22:17:06.535Z,981.3
2023-03-11T22:19:08.281Z,981.2
2023-03-11T22:21:10.919Z,981.1
2023-03-11T22:23:12.081Z,981.1
2023-03-11T22:25:13.892Z,981.2
2023-03-11T22:27:15.177Z,981.1
2023-03-11T22:29:16.334Z,981.1
2023-03-11T22:31:17.539Z,981.2
2023-03-11T22:33:18.738Z,981.1
2023-03-11T22:35:20.481Z,981.1
2023-03-11T22:37:22.007Z,981.1
2023-03-11T22:39:23.696Z,981.2
2023-03-11T22:41:25.026Z,981.2
2023-03-11T22:43:26.558Z,981.2
2023-03-11T22:45:27.696Z,981.1
2023-03-11T22:47:28.884Z,981.2
2023-03-11T22:49:30.082Z,981.1
2023-03-11T22:51:31.430Z,981.1
2023-03-11T22:53:33.232Z,981
2023-03-11T22:55:34.777Z,981.1
2023-03-11T22:57:36.342Z,981
2023-03-11T22:59:37.819Z,981.2
2023-03-11T23:01:39.509Z,981.2
2023-03-11T23:03:41.218Z,981.1
2023-03-11T23:05:43.161Z,981.2
2023-03-11T23:07:44.586Z,981.1
2023-03-11T23:09:46.032Z,981.1
2023-03-11T23:11:47.756Z,981.2
2023-03-11T23:13:49.810Z,981.2
2023-03-11T23:15:51.800Z,981.3
2023-03-11T23:17:53.180Z,981.3
2023-03-11T23:19:54.707Z,981.4
2023-03-11T23:21:56.476Z,981.3
2023-03-11T23:23:58.360Z,981.3
2023-03-11T23:26:00.194Z,981.3
2023-03-11T23:28:02.103Z,981.4
2023-03-11T23:30:03.389Z,981.4
2023-03-11T23:32:05.168Z,981.4
2023-03-11T23:34:06.874Z,981.2
2023-03-11T23:36:08.150Z,981.4
2023-03-11T23:38:09.502Z,981.4
2023-03-11T23:40:10.973Z,981.5
2023-03-11T23:42:24.784Z,981.5
2023-03-11T23:44:13.825Z,981.3
2023-03-11T23:44:57.816Z,981.4
2023-03-11T23:49:00.865Z,981.4
2023-03-11T23:51:02.470Z,981.4
2023-03-11T23:53:04.183Z,981.3
2023-03-11T23:55:05.399Z,981.4
2023-03-11T23:57:07.002Z,981.3
2023-03-11T23:59:08.323Z,981.3
